Time;durP1;ratioP1;P1;durP2;ratioP2;P2;SDS_P1;SDS_P2;PMS_P1;PMS_P2;Temp;Humidity;BMP_temperature;BMP_pressure;BME280_temperature;BME280_humidity;BME280_pressure;Samples;Min_cycle;Max_cycle;Signal;HPM_P1;HPM_P2
2022/04/05 00:00:53;;;;;;;66.35;32.25;;;;;;;7.89;100.00;100345.13;5075645;28;20058;-90
2022/04/05 00:03:18;;;;;;;64.93;30.80;;;;;;;8.01;100.00;100352.50;5075704;28;20498;-89
2022/04/05 00:05:43;;;;;;;60.92;29.55;;;;;;;8.07;100.00;100361.94;5069735;28;20016;-89
2022/04/05 00:08:09;;;;;;;54.63;27.42;;;;;;;8.09;100.00;100360.09;5072904;28;20021;-89
2022/04/05 00:10:36;;;;;;;62.08;28.00;;;;;;;8.08;100.00;100366.34;5074881;28;20020;-90
2022/04/05 00:13:02;;;;;;;62.92;27.10;;;;;;;8.08;100.00;100364.53;5073600;28;20051;-92
2022/04/05 00:15:28;;;;;;;52.13;26.30;;;;;;;8.03;100.00;100355.09;5075424;28;20099;-91
2022/04/05 00:17:53;;;;;;;55.33;25.85;;;;;;;8.03;100.00;100363.06;5073224;28;20052;-88
2022/04/05 00:20:18;;;;;;;56.85;26.15;;;;;;;8.01;100.00;100359.59;5083904;28;20062;-91
2022/04/05 00:22:44;;;;;;;51.80;24.60;;;;;;;7.97;100.00;100350.94;5081203;28;20058;-90
2022/04/05 00:25:09;;;;;;;48.67;23.17;;;;;;;8.01;100.00;100367.56;5073588;28;20409;-90
2022/04/05 00:27:34;;;;;;;46.58;23.40;;;;;;;8.06;100.00;100365.53;5076282;28;20107;-92
2022/04/05 00:30:00;;;;;;;54.30;24.92;;;;;;;8.07;100.00;100360.19;5078491;28;20047;-91
2022/04/05 00:32:26;;;;;;;53.15;23.77;;;;;;;8.08;100.00;100372.50;5075941;28;20036;-91
2022/04/05 00:34:52;;;;;;;54.78;22.92;;;;;;;8.06;100.00;100368.19;5078981;28;20028;-96
2022/04/05 00:37:18;;;;;;;46.60;22.90;;;;;;;8.06;100.00;100365.53;5075360;28;20052;-91
2022/04/05 00:39:43;;;;;;;51.42;23.52;;;;;;;7.98;100.00;100355.28;5079717;28;20377;-92
2022/04/05 00:42:10;;;;;;;43.33;22.65;;;;;;;8.04;100.00;100368.28;5093091;28;20025;-91
2022/04/05 00:44:36;;;;;;;50.95;23.20;;;;;;;8.06;100.00;100365.53;5085231;28;20058;-92
2022/04/05 00:47:21;;;;;;;50.53;23.13;;;;;;;8.06;100.00;100366.38;5073258;28;20016;-90
2022/04/05 00:49:48;;;;;;;47.67;24.05;;;;;;;8.04;100.00;100367.41;5078556;28;20156;-91
2022/04/05 00:52:15;;;;;;;54.00;23.75;;;;;;;8.05;100.00;100369.13;5080538;28;20103;-91
2022/04/05 00:54:43;;;;;;;48.55;23.85;;;;;;;8.00;100.00;100366.69;5083767;28;20021;-92
2022/04/05 00:57:11;;;;;;;52.28;24.08;;;;;;;8.01;100.00;100368.41;5071250;28;20025;-90
2022/04/05 00:59:41;;;;;;;48.22;23.15;;;;;;;8.04;100.00;100370.91;5076908;28;20028;-92
2022/04/05 01:02:08;;;;;;;49.30;24.50;;;;;;;8.00;100.00;100369.34;5073731;28;20029;-91
2022/04/05 01:04:35;;;;;;;57.25;24.40;;;;;;;8.02;100.00;100370.13;5081848;28;20523;-91
2022/04/05 01:07:04;;;;;;;50.60;23.83;;;;;;;7.98;100.00;100366.78;5063978;28;20115;-90
2022/04/05 01:09:29;;;;;;;57.03;24.05;;;;;;;8.04;100.00;100376.22;5073604;28;20029;-92
2022/04/05 01:11:54;;;;;;;55.75;25.10;;;;;;;7.98;100.00;100366.78;5076210;28;20115;-92
2022/04/05 01:14:20;;;;;;;55.03;24.90;;;;;;;8.07;100.00;100378.72;5073945;28;20391;-92
2022/04/05 01:16:46;;;;;;;54.88;24.45;;;;;;;8.05;100.00;100375.28;5068076;28;20036;-91
2022/04/05 01:19:11;;;;;;;56.00;25.10;;;;;;;8.03;100.00;100373.66;5076411;28;20178;-92
2022/04/05 01:21:37;;;;;;;52.00;24.67;;;;;;;8.02;100.00;100370.13;5076612;28;20087;-92
2022/04/05 01:24:06;;;;;;;50.28;24.05;;;;;;;8.04;100.00;100378.88;5075881;28;20025;-91
2022/04/05 01:26:43;;;;;;;53.45;25.98;;;;;;;8.03;100.00;100368.34;5071781;28;20040;-91
2022/04/05 01:29:09;;;;;;;49.05;23.98;;;;;;;8.03;100.00;100381.59;5073002;28;20024;-92
2022/04/05 01:31:39;;;;;;;54.67;25.58;;;;;;;8.01;100.00;100380.81;5079847;28;20028;-93
2022/04/05 01:34:05;;;;;;;46.80;23.95;;;;;;;7.99;100.00;100384.38;5082228;28;20028;-92
2022/04/05 01:36:30;;;;;;;46.80;23.88;;;;;;;8.02;100.00;100387.81;5073515;28;20032;-92
2022/04/05 01:38:55;;;;;;;43.70;21.58;;;;;;;7.99;100.00;100388.84;5083556;28;20060;-92
2022/04/05 01:41:21;;;;;;;50.40;23.13;;;;;;;7.89;100.00;100361.88;5092863;28;20052;-92
2022/04/05 01:43:46;;;;;;;47.60;22.50;;;;;;;7.98;100.00;100380.03;5078555;28;20032;-93
2022/04/05 01:46:11;;;;;;;44.38;23.40;;;;;;;7.96;100.00;100381.88;5080836;28;20067;-91
2022/04/05 01:48:36;;;;;;;45.33;22.20;;;;;;;7.91;100.00;100373.28;5075674;28;20036;-93
2022/04/05 01:51:02;;;;;;;49.35;22.10;;;;;;;7.95;100.00;100374.88;5077138;28;20052;-92
2022/04/05 01:53:27;;;;;;;49.90;22.98;;;;;;;7.97;100.00;100386.25;5074587;28;20013;-92
2022/04/05 01:55:52;;;;;;;46.55;21.98;;;;;;;7.87;100.00;100365.56;5079651;28;20031;-94
2022/04/05 01:58:18;;;;;;;46.20;22.48;;;;;;;7.97;100.00;100382.72;5082742;28;20111;-93
2022/04/05 02:00:43;;;;;;;40.80;21.23;;;;;;;7.96;100.00;100381.88;5086532;28;20066;-94
2022/04/05 02:03:08;;;;;;;49.42;21.35;;;;;;;7.97;100.00;100377.44;5092479;28;20085;-93
2022/04/05 02:05:33;;;;;;;42.13;21.58;;;;;;;7.96;100.00;100379.22;5079515;28;20047;-93
2022/04/05 02:07:59;;;;;;;39.25;21.75;;;;;;;7.90;100.00;100368.03;5088000;28;20082;-94
2022/04/05 02:10:24;;;;;;;47.70;21.83;;;;;;;7.99;100.00;100380.88;5088278;28;20004;-95
2022/04/05 02:12:52;;;;;;;46.80;22.58;;;;;;;7.92;100.00;100371.50;5083557;28;20024;-91
2022/04/05 02:15:18;;;;;;;43.30;20.95;;;;;;;7.96;100.00;100387.19;5072595;28;20100;-91
2022/04/05 02:17:43;;;;;;;43.30;21.13;;;;;;;7.94;100.00;100388.16;5077802;28;20082;-91
2022/04/05 02:20:09;;;;;;;42.95;20.90;;;;;;;7.97;100.00;100388.03;5094519;28;20052;-91
2022/04/05 02:22:34;;;;;;;40.72;21.20;;;;;;;7.90;100.00;100378.66;5084054;28;20111;-91
2022/04/05 02:25:01;;;;;;;43.83;21.33;;;;;;;7.95;100.00;100382.81;5081735;28;20060;-91
2022/04/05 02:27:26;;;;;;;45.35;21.02;;;;;;;7.90;100.00;100376.88;5073359;28;20033;-94
2022/04/05 02:29:52;;;;;;;36.60;19.63;;;;;;;7.96;100.00;100391.63;5075239;28;20363;-91
2022/04/05 02:32:17;;;;;;;44.72;21.30;;;;;;;7.94;100.00;100389.06;5075457;28;20093;-92
2022/04/05 02:34:42;;;;;;;40.15;20.80;;;;;;;7.93;100.00;100384.66;5070604;28;20013;-92
2022/04/05 02:37:08;;;;;;;43.47;21.17;;;;;;;7.95;100.00;100393.41;5072132;28;20116;-92
2022/04/05 02:39:33;;;;;;;47.40;22.85;;;;;;;7.92;100.00;100385.59;5072850;28;20036;-91
2022/04/05 02:41:59;;;;;;;39.03;20.52;;;;;;;7.96;100.00;100384.53;5075040;28;20017;-90
2022/04/05 02:44:24;;;;;;;42.83;20.98;;;;;;;7.96;100.00;100387.19;5067018;28;20032;-91
2022/04/05 02:46:50;;;;;;;39.42;20.73;;;;;;;7.95;100.00;100388.13;5070138;28;20548;-91
2022/04/05 02:49:15;;;;;;;42.88;21.95;;;;;;;7.92;100.00;100382.09;5089056;28;20072;-94
2022/04/05 02:51:41;;;;;;;48.47;21.23;;;;;;;7.94;100.00;100391.72;5075518;28;20459;-94
2022/04/05 02:54:06;;;;;;;42.97;21.65;;;;;;;7.87;100.00;100374.38;5073998;28;20017;-96
2022/04/05 02:56:31;;;;;;;46.10;21.05;;;;;;;7.94;100.00;100391.72;5073327;28;20024;-95
2022/04/05 02:58:57;;;;;;;44.30;21.48;;;;;;;7.93;100.00;100381.16;5083615;28;20048;-95
2022/04/05 03:01:23;;;;;;;44.00;20.65;;;;;;;7.93;100.00;100384.66;5077134;28;20096;-94
2022/04/05 03:03:48;;;;;;;40.13;20.92;;;;;;;7.92;100.00;100384.75;5073359;28;20032;-94
2022/04/05 03:06:14;;;;;;;41.75;21.88;;;;;;;7.86;100.00;100375.31;5073631;28;20033;-95
2022/04/05 03:08:40;;;;;;;45.25;22.15;;;;;;;7.86;100.00;100375.31;5088103;28;20461;-93
2022/04/05 03:11:06;;;;;;;41.60;21.48;;;;;;;7.88;100.00;100381.38;5082798;28;20020;-93
2022/04/05 03:13:32;;;;;;;42.72;21.80;;;;;;;7.90;100.00;100387.47;5084145;28;20029;-93
2022/04/05 03:15:57;;;;;;;45.03;21.70;;;;;;;7.84;100.00;100368.34;5074751;28;20028;-96
2022/04/05 03:18:22;;;;;;;41.03;21.55;;;;;;;7.87;100.00;100378.81;5076675;28;20040;-94
2022/04/05 03:20:48;;;;;;;44.13;21.83;;;;;;;7.89;100.00;100380.44;5073213;28;20074;-91
2022/04/05 03:23:13;;;;;;;44.22;22.10;;;;;;;7.91;100.00;100383.91;5073585;28;20354;-94
2022/04/05 03:25:38;;;;;;;44.67;21.65;;;;;;;7.87;100.00;100377.03;5064689;28;20391;-93
2022/04/05 03:28:04;;;;;;;40.83;21.00;;;;;;;7.84;100.00;100373.66;5073997;28;20044;-96
2022/04/05 03:30:29;;;;;;;41.80;20.85;;;;;;;7.94;100.00;100385.53;5090259;28;20027;-95
2022/04/05 03:32:55;;;;;;;44.50;21.65;;;;;;;7.83;100.00;100369.28;5094491;28;20047;-95
2022/04/05 03:35:20;;;;;;;40.65;21.00;;;;;;;7.87;100.00;100378.81;5071042;28;20060;-93
2022/04/05 03:37:45;;;;;;;41.75;21.23;;;;;;;7.92;100.00;100385.59;5083174;28;20036;-94
2022/04/05 03:40:12;;;;;;;41.05;19.45;;;;;;;7.86;100.00;100377.97;5098137;28;20476;-95
2022/04/05 03:42:37;;;;;;;41.38;20.55;;;;;;;7.81;100.00;100364.03;5086340;28;20072;-93
2022/04/05 03:45:03;;;;;;;40.30;20.00;;;;;;;7.81;100.00;100369.34;5076795;28;20036;-93
2022/04/05 03:47:29;;;;;;;43.35;20.00;;;;;;;7.83;100.00;100369.28;5093316;28;20426;-95
2022/04/05 03:49:54;;;;;;;39.83;19.85;;;;;;;7.82;100.00;100373.72;5087020;28;20113;-93
2022/04/05 03:52:20;;;;;;;39.08;19.48;;;;;;;7.87;100.00;100378.81;5069951;28;20021;-94
2022/04/05 03:54:46;;;;;;;39.90;19.83;;;;;;;7.78;100.00;100366.84;5077868;28;20029;-95
2022/04/05 03:57:11;;;;;;;39.83;19.85;;;;;;;7.85;100.00;100378.00;5090240;28;20511;-92
2022/04/05 03:59:36;;;;;;;44.10;19.75;;;;;;;7.83;100.00;100378.09;5082148;28;20116;-92
2022/04/05 04:02:02;;;;;;;38.85;19.75;;;;;;;7.84;100.00;100386.91;5087419;28;20027;-91
2022/04/05 04:04:27;;;;;;;42.95;19.95;;;;;;;7.77;100.00;100370.41;5075353;28;20036;-93
2022/04/05 04:06:52;;;;;;;42.17;20.35;;;;;;;7.76;100.00;100367.84;5089705;28;20020;-93
2022/04/05 04:09:18;;;;;;;40.00;20.38;;;;;;;7.85;100.00;100380.66;5079301;28;20023;-91
2022/04/05 04:11:44;;;;;;;42.60;20.48;;;;;;;7.75;100.00;100359.03;5086179;28;20033;-94
2022/04/05 04:14:10;;;;;;;38.33;19.67;;;;;;;7.78;100.00;100372.16;5076159;28;20032;-92
2022/04/05 04:16:35;;;;;;;38.78;19.48;;;;;;;7.84;100.00;100376.31;5089175;28;20492;-92
2022/04/05 04:19:01;;;;;;;41.47;19.63;;;;;;;7.82;100.00;100375.53;5076160;28;20040;-90
2022/04/05 04:21:26;;;;;;;38.03;19.20;;;;;;;7.82;100.00;100383.47;5078489;28;20031;-92
2022/04/05 04:23:52;;;;;;;42.53;19.75;;;;;;;7.77;100.00;100361.63;5076760;28;20052;-92
2022/04/05 04:26:17;;;;;;;41.05;20.27;;;;;;;7.81;100.00;100376.44;5078764;28;20032;-91
2022/04/05 04:28:42;;;;;;;37.20;18.65;;;;;;;7.79;100.00;100373.88;5077054;28;20074;-92
2022/04/05 04:31:07;;;;;;;34.75;18.08;;;;;;;7.80;100.00;100374.72;5075945;28;20031;-91
2022/04/05 04:33:33;;;;;;;39.10;20.17;;;;;;;7.69;100.00;100359.31;5072626;28;20310;-94
2022/04/05 04:35:58;;;;;;;36.72;18.85;;;;;;;7.81;100.00;100374.63;5074671;28;20041;-92
2022/04/05 04:38:24;;;;;;;40.92;19.15;;;;;;;7.70;100.00;100361.06;5073505;28;20021;-92
2022/04/05 04:40:50;;;;;;;36.55;19.95;;;;;;;7.81;100.00;100379.09;5073810;28;20032;-92
2022/04/05 04:43:17;;;;;;;43.20;19.27;;;;;;;7.80;100.00;100370.28;5071953;28;20035;-92
2022/04/05 04:45:43;;;;;;;38.50;19.08;;;;;;;7.81;100.00;100379.94;5071090;28;20028;-91
2022/04/05 04:48:09;;;;;;;37.85;19.73;;;;;;;7.77;100.00;100373.06;5079675;28;20056;-91
2022/04/05 04:50:34;;;;;;;40.72;18.83;;;;;;;7.76;100.00;100368.69;5076272;28;20119;-92
2022/04/05 04:52:59;;;;;;;38.08;18.63;;;;;;;7.77;100.00;100369.56;5077715;28;20359;-91
2022/04/05 04:55:25;;;;;;;35.10;18.77;;;;;;;7.82;100.00;100383.47;5074325;28;20032;-94
2022/04/05 04:57:51;;;;;;;34.70;16.85;;;;;;;7.79;100.00;100384.47;5076469;28;20044;-92
2022/04/05 05:00:17;;;;;;;36.10;17.90;;;;;;;7.70;100.00;100363.72;5073833;28;20036;-91
2022/04/05 05:02:50;;;;;;;37.83;19.33;;;;;;;7.73;100.00;100372.38;5072627;28;20029;-93
2022/04/05 05:05:20;;;;;;;35.08;17.65;;;;;;;7.81;100.00;100387.03;5073459;28;20028;-92
2022/04/05 05:07:47;;;;;;;37.22;18.42;;;;;;;7.74;100.00;100368.78;5074111;28;20059;-92
2022/04/05 05:10:12;;;;;;;35.70;18.13;;;;;;;7.81;100.00;100385.25;5073072;28;20507;-94
2022/04/05 05:12:41;;;;;;;32.75;17.10;;;;;;;7.70;100.00;100371.66;5068385;28;20060;-93
2022/04/05 05:15:08;;;;;;;32.38;17.27;;;;;;;7.73;100.00;100372.38;5071747;28;20016;-92
2022/04/05 05:17:35;;;;;;;37.80;18.02;;;;;;;7.80;100.00;100386.19;5080904;28;20037;-92
2022/04/05 05:20:01;;;;;;;33.63;16.00;;;;;;;7.83;100.00;100391.34;5075663;28;20048;-93
2022/04/05 05:22:26;;;;;;;31.33;17.02;;;;;;;7.78;100.00;100381.91;5068296;28;20099;-91
2022/04/05 05:24:51;;;;;;;35.45;17.73;;;;;;;7.80;100.00;100390.63;5071920;28;20047;-91
2022/04/05 05:27:17;;;;;;;36.60;17.90;;;;;;;7.77;100.00;100391.59;5075732;28;20024;-91
2022/04/05 05:29:42;;;;;;;31.05;16.48;;;;;;;7.77;100.00;100394.25;5075753;28;20432;-93
2022/04/05 05:32:07;;;;;;;35.67;17.02;;;;;;;7.75;100.00;100388.19;5074796;28;20033;-93
2022/04/05 05:34:33;;;;;;;32.05;15.93;;;;;;;7.83;100.00;100409.03;5065616;28;20028;-93
2022/04/05 05:36:58;;;;;;;33.13;17.45;;;;;;;7.82;100.00;100400.22;5069041;28;20404;-93
2022/04/05 05:39:24;;;;;;;28.48;16.70;;;;;;;7.75;100.00;100382.88;5088100;28;20032;-94
2022/04/05 05:41:49;;;;;;;32.92;16.83;;;;;;;7.81;100.00;100392.34;5067544;28;20340;-90
2022/04/05 05:44:15;;;;;;;29.88;17.77;;;;;;;7.74;100.00;100383.81;5078089;28;20021;-92
2022/04/05 05:46:40;;;;;;;32.33;16.88;;;;;;;7.83;100.00;100401.09;5074370;28;20020;-88
2022/04/05 05:49:05;;;;;;;34.20;18.35;;;;;;;7.83;100.00;100412.53;5089371;28;20032;-96
2022/04/05 05:51:30;;;;;;;34.30;18.67;;;;;;;7.85;100.00;100402.72;5082400;28;20024;-91
2022/04/05 05:53:56;;;;;;;38.40;19.55;;;;;;;7.78;100.00;100396.00;5065899;28;20477;-93
2022/04/05 05:56:21;;;;;;;35.65;18.98;;;;;;;7.80;100.00;100411.81;5078563;28;20027;-89
2022/04/05 05:58:50;;;;;;;37.42;19.85;;;;;;;7.80;100.00;100410.03;5071556;28;20040;-96
2022/04/05 06:01:16;;;;;;;36.40;20.17;;;;;;;7.82;100.00;100415.28;5078132;28;20047;-96
2022/04/05 06:03:41;;;;;;;42.15;20.20;;;;;;;7.85;100.00;100428.34;5078496;28;20024;-94
2022/04/05 06:06:07;;;;;;;38.20;20.63;;;;;;;7.86;100.00;100423.00;5074762;28;20351;-93
2022/04/05 06:08:32;;;;;;;41.83;22.02;;;;;;;7.86;100.00;100430.94;5071881;28;20025;-94
2022/04/05 06:10:57;;;;;;;43.60;21.85;;;;;;;7.86;100.00;100420.34;5075530;28;20392;-93
2022/04/05 06:13:23;;;;;;;43.15;23.00;;;;;;;7.88;100.00;100428.22;5069297;28;20078;-92
2022/04/05 06:15:48;;;;;;;51.53;24.90;;;;;;;7.86;100.00;100425.66;5077434;28;20131;-95
2022/04/05 06:18:13;;;;;;;40.97;22.40;;;;;;;7.89;100.00;100421.97;5082211;28;20039;-94
2022/04/05 06:20:39;;;;;;;40.78;24.02;;;;;;;7.88;100.00;100434.38;5071878;28;20040;-93
2022/04/05 06:23:05;;;;;;;47.15;23.10;;;;;;;7.88;100.00;100434.38;5068289;28;20033;-93
2022/04/05 06:25:33;;;;;;;42.58;24.08;;;;;;;7.85;100.00;100434.50;5072590;28;20021;-93
2022/04/05 06:28:03;;;;;;;45.85;24.17;;;;;;;7.82;100.00;100426.72;5068669;28;20055;-91
2022/04/05 06:30:30;;;;;;;41.47;23.65;;;;;;;7.88;100.00;100441.47;5067417;28;20539;-92
2022/04/05 06:33:12;;;;;;;43.65;23.42;;;;;;;7.86;100.00;100438.91;5068129;28;20032;-91
2022/04/05 06:35:44;;;;;;;37.08;21.85;;;;;;;7.90;100.00;100443.13;5069204;28;20070;-91
2022/04/05 06:38:10;;;;;;;41.65;22.08;;;;;;;7.91;100.00;100451.94;5073047;28;20039;-92
2022/04/05 06:40:35;;;;;;;39.45;21.52;;;;;;;7.86;100.00;100441.56;5073996;28;20417;-92
2022/04/05 06:43:00;;;;;;;38.05;22.38;;;;;;;7.91;100.00;100447.50;5070910;28;20041;-92
2022/04/05 06:45:26;;;;;;;44.35;21.50;;;;;;;7.93;100.00;100445.63;5075065;28;20071;-92
2022/04/05 06:47:52;;;;;;;38.58;20.50;;;;;;;7.93;100.00;100453.56;5074841;28;20024;-92
2022/04/05 06:50:24;;;;;;;38.28;20.33;;;;;;;7.89;100.00;100446.69;5066902;28;20021;-91
2022/04/05 06:52:52;;;;;;;32.83;17.63;;;;;;;7.95;100.00;100459.66;5066334;28;20036;-90
2022/04/05 06:55:18;;;;;;;33.25;18.05;;;;;;;7.98;100.00;100445.41;5074616;28;20033;-91
2022/04/05 06:57:43;;;;;;;32.33;17.83;;;;;;;7.89;100.00;100433.44;5071965;28;20485;-90
2022/04/05 07:00:11;;;;;;;34.78;18.25;;;;;;;8.02;100.00;100459.38;5072793;28;20009;-92
2022/04/05 07:02:36;;;;;;;31.15;17.55;;;;;;;8.02;100.00;100457.56;5066800;28;20037;-90
2022/04/05 07:05:03;;;;;;;35.17;18.00;;;;;;;8.03;100.00;100443.41;5087694;28;20028;-91
2022/04/05 07:07:28;;;;;;;34.05;17.45;;;;;;;8.09;100.00;100460.81;5076520;28;20024;-93
2022/04/05 07:09:53;;;;;;;28.33;15.43;;;;;;;8.08;100.00;100459.09;5085986;28;20453;-92
2022/04/05 07:12:18;;;;;;;28.92;16.20;;;;;;;8.13;100.00;100471.19;5067908;28;20544;-91
2022/04/05 07:14:44;;;;;;;33.63;17.45;;;;;;;8.10;100.00;100443.97;5059540;28;20036;-92
2022/04/05 07:17:09;;;;;;;27.42;15.23;;;;;;;8.17;100.00;100463.97;5080038;28;20021;-91
2022/04/05 07:19:34;;;;;;;24.98;14.65;;;;;;;8.15;100.00;100453.44;5064839;28;20091;-90
2022/04/05 07:22:01;;;;;;;26.17;13.85;;;;;;;8.21;100.00;100478.81;5085602;28;20033;-87
2022/04/05 07:24:27;;;;;;;23.48;13.43;;;;;;;8.18;100.00;100461.22;5064297;28;20405;-88
2022/04/05 07:26:52;;;;;;;24.35;12.68;;;;;;;8.20;100.00;100470.00;5089271;28;20020;-95
2022/04/05 07:29:17;;;;;;;23.52;13.15;;;;;;;8.19;100.00;100467.41;5067501;28;20547;-92
2022/04/05 07:31:44;;;;;;;24.65;12.27;;;;;;;8.13;100.00;100450.00;5067278;28;20028;-91
2022/04/05 07:34:09;;;;;;;27.23;13.27;;;;;;;8.13;100.00;100457.09;5071617;28;20507;-91
2022/04/05 07:36:35;;;;;;;25.20;13.15;;;;;;;8.16;100.00;100456.97;5087019;28;20036;-90
2022/04/05 07:39:00;;;;;;;22.77;12.65;;;;;;;8.17;100.00;100459.53;5076686;28;20028;-91
2022/04/05 07:41:25;;;;;;;22.08;11.95;;;;;;;8.16;100.00;100451.66;5094758;28;20043;-90
2022/04/05 07:43:51;;;;;;;23.35;12.90;;;;;;;8.13;100.00;100441.19;5080895;28;20028;-92
2022/04/05 07:46:16;;;;;;;21.15;12.30;;;;;;;8.20;100.00;100447.94;5080696;28;20382;-92
2022/04/05 07:48:42;;;;;;;21.75;12.00;;;;;;;8.24;100.00;100449.50;5083493;28;20023;-92
2022/04/05 07:51:07;;;;;;;20.83;11.55;;;;;;;8.25;100.00;100448.56;5076351;28;20095;-93
2022/04/05 07:53:33;;;;;;;21.92;12.30;;;;;;;8.31;100.00;100458.88;5076235;28;20056;-92
2022/04/05 07:55:59;;;;;;;19.98;11.35;;;;;;;8.28;100.00;100439.59;5074114;28;20036;-92
2022/04/05 07:58:25;;;;;;;20.95;10.82;;;;;;;8.41;100.00;100451.38;5077913;28;20850;-92
2022/04/05 08:00:50;;;;;;;22.23;11.52;;;;;;;8.41;100.00;100460.19;5090044;28;20345;-91
2022/04/05 08:03:17;;;;;;;19.85;11.45;;;;;;;8.39;100.00;100455.88;5065033;28;20306;-95
2022/04/05 08:05:43;;;;;;;19.85;11.00;;;;;;;8.41;100.00;100468.16;5092117;28;20028;-94
2022/04/05 08:08:08;;;;;;;17.90;10.68;;;;;;;8.42;100.00;100464.56;5085419;28;20029;-95
2022/04/05 08:10:34;;;;;;;18.60;11.35;;;;;;;8.42;100.00;100467.22;5076490;28;20024;-94
2022/04/05 08:13:00;;;;;;;18.55;10.77;;;;;;;8.47;100.00;100461.69;5070238;28;20405;-94
2022/04/05 08:15:26;;;;;;;16.75;10.00;;;;;;;8.51;100.00;100457.09;5082001;28;20024;-96
2022/04/05 08:17:52;;;;;;;18.73;11.00;;;;;;;8.50;100.00;100456.22;5083217;28;20359;-93
2022/04/05 08:20:18;;;;;;;18.50;11.00;;;;;;;8.48;100.00;100468.69;5068552;28;20059;-92
2022/04/05 08:22:44;;;;;;;17.63;10.15;;;;;;;8.51;100.00;100457.94;5077425;28;20032;-95
2022/04/05 08:25:14;;;;;;;20.98;10.30;;;;;;;8.56;100.00;100471.84;5068673;28;20074;-92
2022/04/05 08:27:40;;;;;;;19.55;11.25;;;;;;;8.57;100.00;100473.59;5052529;28;20042;-91
2022/04/05 08:30:06;;;;;;;18.35;9.57;;;;;;;8.59;100.00;100473.50;5080287;28;20405;-90
2022/04/05 08:32:31;;;;;;;18.55;10.23;;;;;;;8.60;100.00;100472.56;5084996;28;20036;-91
2022/04/05 08:34:56;;;;;;;17.38;10.02;;;;;;;8.61;100.00;100484.88;5076091;28;20473;-90
2022/04/05 08:37:22;;;;;;;16.05;9.95;;;;;;;8.59;100.00;100481.44;5073217;28;20021;-91
2022/04/05 08:39:48;;;;;;;16.40;10.20;;;;;;;8.70;100.00;100481.81;5075360;28;20097;-91
2022/04/05 08:42:14;;;;;;;17.95;10.38;;;;;;;8.77;100.00;100485.84;5072101;28;20280;-92
2022/04/05 08:44:43;;;;;;;15.57;9.80;;;;;;;8.82;100.00;100488.28;5083360;28;20028;-89
2022/04/05 08:47:11;;;;;;;14.80;10.13;;;;;;;8.85;100.00;100483.69;5089013;28;20273;-89
2022/04/05 08:49:38;;;;;;;16.23;10.15;;;;;;;8.87;100.00;100489.78;5070094;28;20398;-91
2022/04/05 08:52:04;;;;;;;14.27;10.18;;;;;;;8.88;100.00;100472.91;5070607;28;20048;-91
2022/04/05 08:54:29;;;;;;;15.55;10.70;;;;;;;8.98;100.00;100486.59;5071235;28;20040;-92
2022/04/05 08:56:54;;;;;;;17.25;11.13;;;;;;;9.00;100.00;100476.75;5067862;28;20036;-93
2022/04/05 08:59:20;;;;;;;14.55;10.20;;;;;;;9.07;100.00;100490.56;5067362;28;20033;-92
2022/04/05 09:01:45;;;;;;;16.10;11.93;;;;;;;9.06;100.00;100496.81;5107699;28;20016;-87
2022/04/05 09:04:10;;;;;;;11.75;10.50;;;;;;;9.07;100.00;100482.59;5076631;28;20032;-92
2022/04/05 09:06:36;;;;;;;16.10;11.60;;;;;;;9.11;100.00;100478.88;5076753;28;20021;-89
2022/04/05 09:09:18;;;;;;;15.25;11.15;;;;;;;9.18;100.00;100493.56;5085181;28;20560;-90
2022/04/05 09:11:53;;;;;;;15.52;11.52;;;;;;;9.19;100.00;100490.81;5065410;28;20032;-88
2022/04/05 09:14:31;;;;;;;17.70;13.40;;;;;;;9.23;100.00;100496.84;5065398;28;20033;-90
2022/04/05 09:17:12;;;;;;;19.05;12.55;;;;;;;9.19;100.00;100484.66;5053982;28;20318;-89
2022/04/05 09:19:48;;;;;;;16.00;11.88;;;;;;;9.14;100.00;100490.19;5075041;28;20500;-89
2022/04/05 09:22:15;;;;;;;16.17;12.25;;;;;;;9.12;100.00;100485.91;5069978;28;20055;-93
2022/04/05 09:24:45;;;;;;;20.10;13.05;;;;;;;9.25;100.00;100497.63;5079392;28;20039;-90
2022/04/05 09:27:12;;;;;;;15.10;12.15;;;;;;;9.25;100.00;100494.97;5075818;28;20033;-89
2022/04/05 09:29:41;;;;;;;17.23;13.60;;;;;;;9.30;100.00;100503.56;5070620;28;20031;-94
2022/04/05 09:32:07;;;;;;;18.23;13.68;;;;;;;9.38;100.00;100498.72;5065835;28;20047;-89
2022/04/05 09:34:33;;;;;;;18.27;14.77;;;;;;;9.46;100.00;100496.53;5061002;28;20017;-93
2022/04/05 09:37:07;;;;;;;19.58;14.98;;;;;;;9.62;100.00;100493.06;5076976;28;20473;-90
2022/04/05 09:39:33;;;;;;;19.50;13.90;;;;;;;9.63;100.00;100497.44;5073208;28;20023;-92
2022/04/05 09:42:10;;;;;;;18.48;14.70;;;;;;;9.58;100.00;100516.28;5070134;28;20397;-90
2022/04/05 09:44:37;;;;;;;23.90;16.23;;;;;;;9.47;100.00;100502.69;5066294;28;20033;-94
2022/04/05 09:47:10;;;;;;;21.42;16.45;;;;;;;9.50;100.00;100497.22;5086655;28;20020;-93
2022/04/05 09:49:40;;;;;;;19.85;15.63;;;;;;;9.59;100.00;100514.47;5089359;28;20036;-93
2022/04/05 09:52:24;;;;;;;21.85;15.93;;;;;;;9.59;100.00;100504.72;5071410;28;20040;-91
2022/04/05 09:54:49;;;;;;;21.65;16.35;;;;;;;9.67;100.00;100509.63;5062541;28;20017;-90
2022/04/05 09:57:26;;;;;;;21.70;16.38;;;;;;;9.70;100.00;100505.03;5075439;28;20296;-91
2022/04/05 09:59:51;;;;;;;22.52;17.02;;;;;;;9.81;100.00;100519.53;5081601;28;20028;-89
2022/04/05 10:02:17;;;;;;;22.70;16.05;;;;;;;9.72;100.00;100508.44;5071918;28;20039;-90
2022/04/05 10:05:09;;;;;;;18.15;15.98;;;;;;;9.59;100.00;100509.16;5073282;28;20036;-92
2022/04/05 10:07:35;;;;;;;18.92;15.75;;;;;;;9.51;100.00;100511.38;5073246;28;20032;-95
2022/04/05 10:10:04;;;;;;;20.08;15.52;;;;;;;9.47;100.00;100508.00;5076050;28;20024;-89
2022/04/05 10:12:29;;;;;;;19.83;16.15;;;;;;;9.58;100.00;100504.81;5067115;28;20029;-94
2022/04/05 10:14:56;;;;;;;17.95;14.27;;;;;;;9.70;100.00;100526.28;5075946;28;20024;-93
2022/04/05 10:17:25;;;;;;;20.33;15.23;;;;;;;9.76;100.00;100510.94;5070184;28;20532;-90
2022/04/05 10:19:52;;;;;;;20.27;13.68;;;;;;;9.95;100.00;100517.00;5070769;28;20094;-96
2022/04/05 10:22:18;;;;;;;15.52;12.00;;;;;;;10.02;100.00;100509.56;5076022;28;20036;-95
2022/04/05 10:24:45;;;;;;;12.43;11.05;;;;;;;9.94;100.00;100502.84;5074013;28;20470;-94
2022/04/05 10:27:11;;;;;;;14.70;12.10;;;;;;;10.08;100.00;100522.53;5074020;28;20092;-96
2022/04/05 10:29:37;;;;;;;15.90;11.93;;;;;;;10.24;100.00;100504.78;5086409;28;20058;-96
2022/04/05 10:32:43;;;;;;;13.52;10.93;;;;;;;10.55;100.00;100509.31;5125146;22;20044;-96
2022/04/05 10:35:10;;;;;;;14.55;10.55;;;;;;;11.27;100.00;100521.13;5021892;28;20057;-93
2022/04/05 10:37:38;;;;;;;10.48;8.70;;;;;;;11.64;100.00;100516.28;5039733;28;20060;-93
2022/04/05 10:40:04;;;;;;;11.20;8.40;;;;;;;11.96;99.56;100509.03;5033252;28;20488;-93
2022/04/05 10:42:38;;;;;;;9.30;7.22;;;;;;;12.06;97.37;100509.28;5033039;28;20392;-95
2022/04/05 10:45:14;;;;;;;10.38;7.75;;;;;;;11.92;96.53;100508.34;5028214;28;20108;-92
2022/04/05 10:48:15;;;;;;;9.35;7.13;;;;;;;11.61;98.33;100506.66;5028052;28;20038;-92
2022/04/05 10:50:42;;;;;;;9.07;6.57;;;;;;;11.37;97.92;100522.31;5012267;28;20014;-91
2022/04/05 10:53:19;;;;;;;10.40;7.05;;;;;;;11.44;98.60;100507.66;5025264;28;20037;-93
2022/04/05 10:56:03;;;;;;;9.65;6.93;;;;;;;11.50;97.83;100500.28;5033991;28;20115;-93
2022/04/05 10:58:33;;;;;;;11.55;6.68;;;;;;;11.58;97.15;100497.97;5031578;28;20041;-91
2022/04/05 11:01:24;;;;;;;8.35;6.18;;;;;;;11.88;96.35;100495.31;5029017;28;20124;-92
2022/04/05 11:04:16;;;;;;;7.57;5.72;;;;;;;11.79;95.68;100507.38;5029499;28;20029;-93
2022/04/05 11:07:06;;;;;;;10.02;6.70;;;;;;;11.55;98.37;100508.84;5050065;28;20493;-87
2022/04/05 11:09:34;;;;;;;8.63;6.10;;;;;;;11.13;98.86;100497.13;5054274;28;20044;-91